createdAt,value
2018-05-04T00:00:30.074Z,96.40
2018-05-04T00:02:33.517Z,96.40
2018-05-04T00:04:36.841Z,96.70
2018-05-04T00:06:40.172Z,96.80
2018-05-04T00:08:43.558Z,97.00
2018-05-04T00:10:46.898Z,97.00
2018-05-04T00:12:50.508Z,97.30
2018-05-04T00:14:53.864Z,97.60
2018-05-04T00:16:57.162Z,97.70
2018-05-04T00:19:01.284Z,98.00
2018-05-04T00:21:04.604Z,98.00
2018-05-04T00:23:07.915Z,98.10
2018-05-04T00:25:11.238Z,98.10
2018-05-04T00:27:15.351Z,98.30
2018-05-04T00:29:19.425Z,98.60
2018-05-04T00:31:22.828Z,98.60
2018-05-04T00:33:26.191Z,98.70
2018-05-04T00:35:29.635Z,98.90
2018-05-04T00:37:33.835Z,99.10
2018-05-04T00:39:37.214Z,99.10
2018-05-04T00:41:40.518Z,99.20
2018-05-04T00:43:43.840Z,99.50
2018-05-04T00:45:47.952Z,99.90
2018-05-04T00:47:52.025Z,99.90
2018-05-04T00:49:56.115Z,99.90
2018-05-04T00:51:59.440Z,99.90
2018-05-04T00:54:20.353Z,99.90
2018-05-04T00:56:23.646Z,99.90
2018-05-04T00:58:27.774Z,99.90
2018-05-04T01:00:31.106Z,99.90
2018-05-04T01:02:34.423Z,99.90
2018-05-04T01:04:37.852Z,99.90
2018-05-04T01:06:41.182Z,99.90
2018-05-04T01:08:45.718Z,99.90
2018-05-04T01:10:49.191Z,99.90
2018-05-04T01:12:58.286Z,99.90
2018-05-04T01:15:01.589Z,99.90
2018-05-04T01:17:05.017Z,99.90
2018-05-04T01:19:08.326Z,99.90
2018-05-04T01:21:11.672Z,99.90
2018-05-04T01:23:15.121Z,99.90
2018-05-04T01:25:18.557Z,99.90
2018-05-04T01:27:21.885Z,99.90
2018-05-04T01:31:48.350Z,99.90
2018-05-04T01:33:51.694Z,99.90
2018-05-04T01:35:55.024Z,99.90
2018-05-04T01:37:58.438Z,99.90
2018-05-04T01:40:01.796Z,99.90
2018-05-04T01:42:05.143Z,99.90
2018-05-04T01:44:08.528Z,99.90
2018-05-04T01:46:12.598Z,99.90
2018-05-04T01:48:15.953Z,99.90
2018-05-04T01:50:19.275Z,99.90
2018-05-04T01:52:22.589Z,99.90
2018-05-04T01:54:25.942Z,99.90
2018-05-04T01:56:30.303Z,99.90
2018-05-04T01:58:34.412Z,99.90
2018-05-04T02:00:37.821Z,99.90
2018-05-04T02:02:41.900Z,99.90
2018-05-04T02:04:45.225Z,99.90
2018-05-04T02:06:49.275Z,99.90
2018-05-04T02:08:52.588Z,99.90
2018-05-04T02:10:55.885Z,99.90
2018-05-04T02:12:59.998Z,99.90
2018-05-04T02:15:03.358Z,99.90
2018-05-04T02:17:06.683Z,99.90
2018-05-04T02:19:10.226Z,99.90
2018-05-04T02:21:13.557Z,99.90
2018-05-04T02:23:16.865Z,99.90
2018-05-04T02:25:20.314Z,99.90
2018-05-04T02:27:23.670Z,99.90
2018-05-04T02:29:27.006Z,99.90
2018-05-04T02:31:30.310Z,99.90
2018-05-04T02:33:33.591Z,99.90
2018-05-04T02:35:37.247Z,99.90
2018-05-04T02:37:40.546Z,99.90
2018-05-04T02:39:44.634Z,99.90
2018-05-04T02:41:48.000Z,99.90
2018-05-04T02:43:51.383Z,99.90
2018-05-04T02:45:54.706Z,99.90
2018-05-04T02:47:58.089Z,99.90
2018-05-04T02:50:01.429Z,99.90
2018-05-04T02:52:04.773Z,99.90
2018-05-04T02:54:08.158Z,99.90
2018-05-04T02:56:11.556Z,99.90
2018-05-04T02:58:14.866Z,99.90
2018-05-04T03:00:18.950Z,99.90
2018-05-04T03:02:22.329Z,99.90
2018-05-04T03:04:26.407Z,99.90
2018-05-04T03:06:29.720Z,99.90
2018-05-04T03:08:33.028Z,99.90
2018-05-04T03:10:36.411Z,99.90
2018-05-04T03:12:39.695Z,99.90
2018-05-04T03:14:43.018Z,99.90
2018-05-04T03:16:46.508Z,99.90
2018-05-04T03:18:49.903Z,99.90
2018-05-04T03:20:53.318Z,99.90
2018-05-04T03:22:56.633Z,99.90
2018-05-04T03:24:59.941Z,99.90
2018-05-04T03:27:03.316Z,99.90
2018-05-04T03:29:06.686Z,99.90
2018-05-04T03:31:09.981Z,99.90
2018-05-04T03:33:14.191Z,99.90
2018-05-04T03:35:17.506Z,99.90
2018-05-04T03:37:20.817Z,99.90
2018-05-04T03:39:24.281Z,99.90
2018-05-04T03:41:27.693Z,99.90
2018-05-04T03:43:31.012Z,99.90
2018-05-04T03:45:34.393Z,99.90
2018-05-04T03:47:37.806Z,99.90
2018-05-04T03:49:41.104Z,99.90
2018-05-04T03:51:45.328Z,99.90
2018-05-04T03:53:48.671Z,99.90
2018-05-04T03:55:51.992Z,99.90
2018-05-04T03:58:13.026Z,99.90
2018-05-04T04:00:33.829Z,99.90
2018-05-04T04:02:55.392Z,99.90
2018-05-04T04:04:58.816Z,99.90
2018-05-04T04:07:02.128Z,99.90
2018-05-04T04:09:07.246Z,99.90
2018-05-04T04:11:10.571Z,99.90
2018-05-04T04:13:14.828Z,99.90
2018-05-04T04:15:18.210Z,99.90
2018-05-04T04:17:21.570Z,99.90
2018-05-04T04:19:24.923Z,99.90
2018-05-04T04:21:28.267Z,99.90
2018-05-04T04:23:32.370Z,99.90
2018-05-04T04:25:36.461Z,99.90
2018-05-04T04:27:39.803Z,99.90
2018-05-04T04:29:43.130Z,99.90
2018-05-04T04:31:46.443Z,99.90
2018-05-04T04:33:50.542Z,99.90
2018-05-04T04:35:54.737Z,99.90
2018-05-04T04:37:58.035Z,99.90
2018-05-04T04:40:01.437Z,99.90
2018-05-04T04:42:04.890Z,99.90
2018-05-04T04:44:08.229Z,99.90
2018-05-04T04:46:11.588Z,99.90
2018-05-04T04:48:15.834Z,99.90
2018-05-04T04:50:19.221Z,99.90
2018-05-04T04:52:22.883Z,99.90
2018-05-04T04:54:26.931Z,99.90
2018-05-04T04:56:30.361Z,99.90
2018-05-04T04:58:33.702Z,99.90
2018-05-04T05:00:37.109Z,99.90
2018-05-04T05:02:40.496Z,99.90
2018-05-04T05:04:44.879Z,99.90
2018-05-04T05:06:49.107Z,99.90
2018-05-04T05:08:52.513Z,99.90
2018-05-04T05:10:55.838Z,99.90
2018-05-04T05:12:59.171Z,99.90
2018-05-04T05:15:02.467Z,99.90
2018-05-04T05:17:05.793Z,99.90
2018-05-04T05:19:09.971Z,99.90
2018-05-04T05:21:13.330Z,99.90
2018-05-04T05:23:17.002Z,99.90
2018-05-04T05:25:20.411Z,99.90
2018-05-04T05:27:24.554Z,99.90
2018-05-04T05:29:27.917Z,99.90
2018-05-04T05:31:31.353Z,99.90
2018-05-04T05:33:34.829Z,99.90
2018-05-04T05:35:38.217Z,99.90
2018-05-04T05:37:41.595Z,99.90
2018-05-04T05:39:45.729Z,99.90
2018-05-04T05:41:49.082Z,99.90
2018-05-04T05:43:53.286Z,99.90
2018-05-04T05:45:57.503Z,99.90
2018-05-04T05:48:01.638Z,99.90
2018-05-04T05:50:05.777Z,99.90
2018-05-04T05:54:13.433Z,99.90
2018-05-04T05:56:16.881Z,99.90
2018-05-04T05:58:21.120Z,99.90
2018-05-04T06:00:24.626Z,99.90
2018-05-04T06:02:28.019Z,99.90
2018-05-04T06:04:31.350Z,99.90
2018-05-04T06:06:34.737Z,99.90
2018-05-04T06:08:38.086Z,99.90
2018-05-04T06:10:41.453Z,99.90
2018-05-04T06:12:44.855Z,99.90
2018-05-04T06:14:48.255Z,99.90
2018-05-04T06:16:51.653Z,99.90
2018-05-04T06:18:54.969Z,99.90
2018-05-04T06:20:59.239Z,99.90
2018-05-04T06:23:02.633Z,99.90
2018-05-04T06:25:06.046Z,99.90
2018-05-04T06:27:09.344Z,99.90
2018-05-04T06:29:12.709Z,99.90
2018-05-04T06:31:16.048Z,99.90
2018-05-04T06:33:19.433Z,99.90
2018-05-04T06:35:22.898Z,99.90
2018-05-04T06:37:26.264Z,99.90
2018-05-04T06:39:29.640Z,99.90
2018-05-04T06:41:33.742Z,99.50
2018-05-04T06:43:37.125Z,99.50
2018-05-04T06:45:41.293Z,98.90
2018-05-04T06:47:44.608Z,98.90
2018-05-04T06:49:47.928Z,98.40
2018-05-04T06:51:51.278Z,98.30
2018-05-04T06:53:54.671Z,98.10
2018-05-04T06:55:57.986Z,97.50
2018-05-04T06:58:01.360Z,97.20
2018-05-04T07:00:05.459Z,96.60
2018-05-04T07:02:08.861Z,95.80
2018-05-04T07:04:12.209Z,95.10
2018-05-04T07:06:15.582Z,94.90
2018-05-04T07:08:18.955Z,94.80
2018-05-04T07:10:22.336Z,94.70
2018-05-04T07:12:25.804Z,94.30
2018-05-04T07:14:29.189Z,93.80
2018-05-04T07:16:32.584Z,94.00
2018-05-04T07:18:35.928Z,92.30
2018-05-04T07:20:39.237Z,91.30
2018-05-04T07:22:42.604Z,90.70
2018-05-04T07:24:45.918Z,90.50
2018-05-04T07:26:49.993Z,86.80
2018-05-04T07:28:53.354Z,86.80
2018-05-04T07:30:56.728Z,86.50
2018-05-04T07:33:00.075Z,84.20
2018-05-04T07:35:03.427Z,82.80
2018-05-04T07:37:06.825Z,80.60
2018-05-04T07:39:10.191Z,81.20
2018-05-04T07:41:13.555Z,81.20
2018-05-04T07:43:17.015Z,80.10
2018-05-04T07:45:20.380Z,79.10
2018-05-04T07:47:24.713Z,74.10
2018-05-04T07:49:28.128Z,74.20
2018-05-04T07:51:31.659Z,72.50
2018-05-04T07:53:35.096Z,72.50
2018-05-04T07:55:38.499Z,71.90
2018-05-04T07:57:41.869Z,70.60
2018-05-04T07:59:45.236Z,70.20
2018-05-04T08:01:49.670Z,68.50
2018-05-04T08:03:53.048Z,66.30
2018-05-04T08:05:57.184Z,65.20
2018-05-04T08:08:00.546Z,65.20
2018-05-04T08:10:03.946Z,65.30
2018-05-04T08:12:07.284Z,65.10
2018-05-04T08:14:10.632Z,65.70
2018-05-04T08:16:14.055Z,64.60
2018-05-04T08:18:17.409Z,62.00
2018-05-04T08:20:20.803Z,59.50
2018-05-04T08:22:24.223Z,58.80
2018-05-04T08:26:37.999Z,57.90
2018-05-04T08:28:41.375Z,56.60
2018-05-04T08:30:44.761Z,57.80
2018-05-04T08:32:48.969Z,54.20
2018-05-04T08:34:52.404Z,54.20
2018-05-04T08:36:55.904Z,55.50
2018-05-04T08:38:59.323Z,54.80
2018-05-04T08:41:04.287Z,54.00
2018-05-04T08:43:08.543Z,54.10
2018-05-04T08:45:12.311Z,54.10
2018-05-04T08:47:15.665Z,53.20
2018-05-04T08:49:19.812Z,52.30
2018-05-04T08:51:23.242Z,52.30
2018-05-04T08:53:26.642Z,52.30
2018-05-04T08:55:30.097Z,52.60
2018-05-04T08:57:33.478Z,52.90
2018-05-04T08:59:36.881Z,53.60
2018-05-04T09:01:40.300Z,53.70
2018-05-04T09:03:43.711Z,54.70
2018-05-04T09:05:47.123Z,54.20
2018-05-04T09:07:50.545Z,54.70
2018-05-04T09:09:54.737Z,54.70
2018-05-04T09:11:58.163Z,54.70
2018-05-04T09:14:01.601Z,54.40
2018-05-04T09:16:05.038Z,54.70
2018-05-04T09:18:08.422Z,53.90
2018-05-04T09:20:12.112Z,54.60
2018-05-04T09:22:15.495Z,54.80
2018-05-04T09:24:19.015Z,55.50
2018-05-04T09:26:22.577Z,55.00
2018-05-04T09:28:27.023Z,55.20
2018-05-04T09:30:30.446Z,54.50
2018-05-04T09:32:33.851Z,54.30
2018-05-04T09:34:37.189Z,54.10
2018-05-04T09:36:40.603Z,54.40
2018-05-04T09:38:44.132Z,54.80
2018-05-04T09:40:47.476Z,54.40
2018-05-04T09:42:51.004Z,53.50
2018-05-04T09:44:54.222Z,53.60
2018-05-04T09:46:57.608Z,53.60
2018-05-04T09:49:00.990Z,53.80
2018-05-04T09:51:05.195Z,53.10
2018-05-04T09:53:08.559Z,53.00
2018-05-04T09:55:12.052Z,52.00
2018-05-04T09:57:16.542Z,52.50
2018-05-04T09:59:20.044Z,51.20
2018-05-04T10:01:23.414Z,51.00
2018-05-04T10:03:26.831Z,49.20
2018-05-04T10:05:30.240Z,49.40
2018-05-04T10:07:33.603Z,49.30
2018-05-04T10:09:37.026Z,50.30
2018-05-04T10:11:40.440Z,50.00
2018-05-04T10:13:43.821Z,50.40
2018-05-04T10:15:47.304Z,49.60
2018-05-04T10:17:50.647Z,50.00
2018-05-04T10:19:54.798Z,50.80
2018-05-04T10:21:58.232Z,50.80
2018-05-04T10:24:01.732Z,49.90
2018-05-04T10:26:05.305Z,49.10
2018-05-04T10:28:08.721Z,48.70
2018-05-04T10:30:26.838Z,48.50
2018-05-04T10:32:30.203Z,48.10
2018-05-04T10:34:33.551Z,48.50
2018-05-04T10:36:37.653Z,48.50
2018-05-04T10:38:41.234Z,48.50
2018-05-04T10:40:45.262Z,47.50
2018-05-04T10:42:49.371Z,47.50
2018-05-04T10:44:52.748Z,47.50
2018-05-04T10:47:04.976Z,48.10
2018-05-04T10:49:08.439Z,47.60
2018-05-04T10:51:11.810Z,47.50
2018-05-04T10:53:15.151Z,46.60
2018-05-04T10:55:18.596Z,45.90
2018-05-04T10:57:22.241Z,45.50
2018-05-04T10:59:26.047Z,47.00
2018-05-04T11:01:29.586Z,45.70
2018-05-04T11:03:32.984Z,45.20
2018-05-04T11:05:36.394Z,45.00
2018-05-04T11:07:39.793Z,44.90
2018-05-04T11:09:43.146Z,46.40
2018-05-04T11:11:46.578Z,45.90
2018-05-04T11:13:49.968Z,45.90
2018-05-04T11:15:53.325Z,45.50
2018-05-04T11:17:56.767Z,44.60
2018-05-04T11:20:00.187Z,45.30
2018-05-04T11:22:03.547Z,44.90
2018-05-04T11:24:07.088Z,44.90
2018-05-04T11:26:11.281Z,44.60
2018-05-04T11:28:15.079Z,44.60
2018-05-04T11:30:18.593Z,44.30
2018-05-04T11:32:24.141Z,44.10
2018-05-04T11:34:28.315Z,44.70
2018-05-04T11:36:31.724Z,44.70
2018-05-04T11:38:35.107Z,45.20
2018-05-04T11:40:38.523Z,45.20
2018-05-04T11:42:41.977Z,46.30
2018-05-04T11:44:45.347Z,46.30
2018-05-04T11:46:49.610Z,44.70
2018-05-04T11:48:53.068Z,44.20
2018-05-04T11:50:56.394Z,43.90
2018-05-04T11:53:00.546Z,45.20
2018-05-04T11:55:03.986Z,43.60
2018-05-04T11:57:07.389Z,44.60
2018-05-04T11:59:10.766Z,45.20
2018-05-04T12:01:14.208Z,44.10
2018-05-04T12:03:18.384Z,42.80
2018-05-04T12:05:21.864Z,42.80
2018-05-04T12:07:25.250Z,42.60
2018-05-04T12:09:29.062Z,43.40
2018-05-04T12:11:32.446Z,44.50
2018-05-04T12:13:36.011Z,43.50
2018-05-04T12:15:39.437Z,43.60
2018-05-04T12:17:42.788Z,43.20
2018-05-04T12:19:47.001Z,42.20
2018-05-04T12:21:51.124Z,42.80
2018-05-04T12:23:54.571Z,42.80
2018-05-04T12:25:57.977Z,42.30
2018-05-04T12:28:02.218Z,41.40
2018-05-04T12:30:06.407Z,40.10
2018-05-04T12:32:09.868Z,40.10
2018-05-04T12:34:13.422Z,40.50
2018-05-04T12:36:17.222Z,40.50
2018-05-04T12:38:20.588Z,40.50
2018-05-04T12:40:23.925Z,40.90
2018-05-04T12:42:28.201Z,41.30
2018-05-04T12:44:31.535Z,41.40
2018-05-04T12:46:34.977Z,40.40
2018-05-04T12:48:38.374Z,41.40
2018-05-04T12:50:41.837Z,39.70
2018-05-04T12:52:45.279Z,39.70
2018-05-04T12:54:48.699Z,38.70
2018-05-04T12:56:52.155Z,38.90
2018-05-04T12:58:55.521Z,39.50
2018-05-04T13:00:59.010Z,40.00
2018-05-04T13:03:02.583Z,38.60
2018-05-04T13:07:23.113Z,38.60
2018-05-04T13:09:26.677Z,39.70
2018-05-04T13:11:30.774Z,40.00
2018-05-04T13:13:35.059Z,40.10
2018-05-04T13:15:38.585Z,39.50
2018-05-04T13:17:41.969Z,39.60
2018-05-04T13:19:45.336Z,39.60
2018-05-04T13:21:48.746Z,38.90
2018-05-04T13:23:52.120Z,39.10
2018-05-04T13:25:55.588Z,38.10
2018-05-04T13:27:58.989Z,38.70
2018-05-04T13:30:02.330Z,38.20
2018-05-04T13:32:05.723Z,38.00
2018-05-04T13:34:09.179Z,37.60
2018-05-04T13:36:12.579Z,38.30
2018-05-04T13:38:16.020Z,38.10
2018-05-04T13:40:20.265Z,37.40
2018-05-04T13:42:23.775Z,37.40
2018-05-04T13:44:27.178Z,37.20
2018-05-04T13:46:30.597Z,37.30
2018-05-04T13:48:33.960Z,36.20
2018-05-04T13:50:37.375Z,35.20
2018-05-04T13:52:40.815Z,34.50
2018-05-04T13:54:44.385Z,35.30
2018-05-04T13:56:47.776Z,35.70
2018-05-04T13:58:51.302Z,35.90
2018-05-04T14:00:54.726Z,36.80
2018-05-04T14:02:58.141Z,37.50
2018-05-04T14:05:01.616Z,37.10
2018-05-04T14:07:05.993Z,37.00
2018-05-04T14:09:09.369Z,37.40
2018-05-04T14:11:14.336Z,35.90
2018-05-04T14:13:18.297Z,36.30
2018-05-04T14:15:21.705Z,37.70
2018-05-04T14:17:26.601Z,37.10
2018-05-04T14:19:31.122Z,36.70
2018-05-04T14:21:34.578Z,36.60
2018-05-04T14:23:37.928Z,36.30
2018-05-04T14:25:42.390Z,36.80
2018-05-04T14:27:45.831Z,37.00
2018-05-04T14:29:49.227Z,38.00
2018-05-04T14:31:52.681Z,38.70
2018-05-04T14:33:56.119Z,38.50
2018-05-04T14:35:59.563Z,38.90
2018-05-04T14:38:03.044Z,38.40
2018-05-04T14:40:06.588Z,38.60
2018-05-04T14:42:10.152Z,38.70
2018-05-04T14:44:13.528Z,38.10
2018-05-04T14:46:17.633Z,38.60
2018-05-04T14:48:21.009Z,38.70
2018-05-04T14:50:25.127Z,39.00
2018-05-04T14:52:28.603Z,39.00
2018-05-04T14:54:32.112Z,38.00
2018-05-04T14:56:36.336Z,37.80
2018-05-04T14:58:40.958Z,37.50
2018-05-04T15:00:45.223Z,37.50
2018-05-04T15:02:48.676Z,37.50
2018-05-04T15:04:52.292Z,37.40
2018-05-04T15:06:56.157Z,38.10
2018-05-04T15:09:02.855Z,37.80
2018-05-04T15:11:06.263Z,38.00
2018-05-04T15:13:09.788Z,37.40
2018-05-04T15:15:13.178Z,37.30
2018-05-04T15:17:16.553Z,37.00
2018-05-04T15:19:20.014Z,36.60
2018-05-04T15:21:24.194Z,36.70
2018-05-04T15:23:27.605Z,36.70
2018-05-04T15:25:31.934Z,36.50
2018-05-04T15:27:35.300Z,36.50
2018-05-04T15:29:38.720Z,36.60
2018-05-04T15:31:42.081Z,37.70
2018-05-04T15:33:45.483Z,37.70
2018-05-04T15:35:48.838Z,38.30
2018-05-04T15:37:52.285Z,37.80
2018-05-04T15:39:56.666Z,37.80
2018-05-04T15:41:59.911Z,37.80
2018-05-04T15:44:03.294Z,37.90
2018-05-04T15:46:07.480Z,37.00
2018-05-04T15:50:55.041Z,36.70
2018-05-04T15:52:59.172Z,36.10
2018-05-04T15:55:02.603Z,36.10
2018-05-04T15:57:06.038Z,35.60
2018-05-04T15:59:10.381Z,35.00
2018-05-04T16:01:13.808Z,35.00
2018-05-04T16:03:17.255Z,34.10
2018-05-04T16:05:22.113Z,33.50
2018-05-04T16:07:26.167Z,33.40
2018-05-04T16:09:29.569Z,33.30
2018-05-04T16:11:33.063Z,32.60
2018-05-04T16:13:36.550Z,32.30
2018-05-04T16:15:40.045Z,33.20
2018-05-04T16:17:43.408Z,33.00
2018-05-04T16:19:46.838Z,32.70
2018-05-04T16:21:50.199Z,32.80
2018-05-04T16:23:53.639Z,33.30
2018-05-04T16:25:57.080Z,34.40
2018-05-04T16:28:00.532Z,35.20
2018-05-04T16:30:04.865Z,36.30
2018-05-04T16:32:08.252Z,36.20
2018-05-04T16:34:12.131Z,36.80
2018-05-04T16:36:16.553Z,36.80
2018-05-04T16:38:19.987Z,36.90
2018-05-04T16:40:23.467Z,37.00
2018-05-04T16:42:26.820Z,37.30
2018-05-04T16:44:30.250Z,37.00
2018-05-04T16:46:39.862Z,36.70
2018-05-04T16:48:49.551Z,36.80
2018-05-04T16:50:52.936Z,36.70
2018-05-04T16:52:56.389Z,37.10
2018-05-04T16:54:59.845Z,37.30
2018-05-04T16:57:03.282Z,37.30
2018-05-04T16:59:25.336Z,37.90
2018-05-04T17:01:29.776Z,37.90
2018-05-04T17:03:33.158Z,37.60
2018-05-04T17:05:36.633Z,37.30
2018-05-04T17:07:40.874Z,36.90
2018-05-04T17:09:44.260Z,36.90
2018-05-04T17:11:48.742Z,36.30
2018-05-04T17:13:52.204Z,36.20
2018-05-04T17:15:55.696Z,35.80
2018-05-04T17:17:59.103Z,34.90
2018-05-04T17:20:05.786Z,34.10
2018-05-04T17:22:11.171Z,33.70
2018-05-04T17:24:14.554Z,33.70
2018-05-04T17:26:17.989Z,33.40
2018-05-04T17:28:21.413Z,33.60
2018-05-04T17:30:24.877Z,33.60
2018-05-04T17:32:29.075Z,33.90
2018-05-04T17:34:32.497Z,33.80
2018-05-04T17:36:35.888Z,33.90
2018-05-04T17:38:39.509Z,35.60
2018-05-04T17:40:42.876Z,36.80
2018-05-04T17:42:46.289Z,37.80
2018-05-04T17:44:51.283Z,38.60
2018-05-04T17:46:54.767Z,39.00
2018-05-04T17:48:58.270Z,39.80
2018-05-04T17:51:01.693Z,39.80
2018-05-04T17:53:05.100Z,40.30
2018-05-04T17:55:08.584Z,40.60
2018-05-04T17:57:11.954Z,40.90
2018-05-04T17:59:15.426Z,40.70
2018-05-04T18:01:18.874Z,41.40
2018-05-04T18:03:22.714Z,41.30
2018-05-04T18:05:26.801Z,41.60
2018-05-04T18:07:31.147Z,41.50
2018-05-04T18:09:34.637Z,42.00
2018-05-04T18:11:38.004Z,42.20
2018-05-04T18:13:41.455Z,42.30
2018-05-04T18:15:44.976Z,42.50
2018-05-04T18:17:48.439Z,43.10
2018-05-04T18:19:54.396Z,42.70
2018-05-04T18:21:57.827Z,43.20
2018-05-04T18:24:03.025Z,43.60
2018-05-04T18:26:07.911Z,43.60
2018-05-04T18:28:12.291Z,44.10
2018-05-04T18:30:16.497Z,44.10
2018-05-04T18:32:20.568Z,44.40
2018-05-04T18:34:24.029Z,44.60
2018-05-04T18:36:27.473Z,44.80
2018-05-04T18:38:30.928Z,45.00
2018-05-04T18:40:34.413Z,45.30
2018-05-04T18:42:37.862Z,45.50
2018-05-04T18:44:41.342Z,45.80
2018-05-04T18:46:44.793Z,45.90
2018-05-04T18:48:48.406Z,46.20
2018-05-04T18:50:52.361Z,46.30
2018-05-04T18:52:55.781Z,46.30
2018-05-04T18:54:59.233Z,46.60
2018-05-04T18:57:02.808Z,46.60
2018-05-04T18:59:09.218Z,47.10
2018-05-04T19:01:13.427Z,47.20
2018-05-04T19:03:22.803Z,47.20
2018-05-04T19:05:26.276Z,47.50
2018-05-04T19:07:30.072Z,47.70
2018-05-04T19:09:36.720Z,48.10
2018-05-04T19:11:40.300Z,48.30
2018-05-04T19:13:43.801Z,48.30
2018-05-04T19:15:47.336Z,48.70
2018-05-04T19:17:54.927Z,49.00
2018-05-04T19:19:59.941Z,49.20
2018-05-04T19:22:03.667Z,49.10
2018-05-04T19:24:07.863Z,49.50
2018-05-04T19:26:11.816Z,49.60
2018-05-04T19:28:16.088Z,50.00
2018-05-04T19:30:19.650Z,50.00
2018-05-04T19:32:23.712Z,50.30
2018-05-04T19:34:27.288Z,50.70
2018-05-04T19:36:30.746Z,50.80
2018-05-04T19:38:36.514Z,51.10
2018-05-04T19:40:40.199Z,51.40
2018-05-04T19:42:49.671Z,51.80
2018-05-04T19:45:01.547Z,52.10
2018-05-04T19:47:08.361Z,52.50
2018-05-04T19:49:16.160Z,53.00
2018-05-04T19:51:27.748Z,53.40
2018-05-04T19:53:31.430Z,53.40
2018-05-04T19:55:35.247Z,53.50
2018-05-04T19:57:39.567Z,54.50
2018-05-04T19:59:43.645Z,54.40
2018-05-04T20:01:50.762Z,54.80
2018-05-04T20:03:59.559Z,54.90
2018-05-04T20:08:17.215Z,55.90
2018-05-04T20:10:22.453Z,56.20
2018-05-04T20:12:28.040Z,56.60
2018-05-04T20:14:33.336Z,57.30
2018-05-04T20:16:37.886Z,57.70
2018-05-04T20:18:44.611Z,57.80
2018-05-04T20:20:50.786Z,57.70
2018-05-04T20:22:55.739Z,58.00
2018-05-04T20:25:03.071Z,58.30
2018-05-04T20:27:07.290Z,58.50
2018-05-04T20:29:10.710Z,58.60
2018-05-04T20:31:14.805Z,58.90
2018-05-04T20:33:31.903Z,59.10
2018-05-04T20:36:08.267Z,59.40
2018-05-04T20:38:40.279Z,59.40
2018-05-04T20:40:43.788Z,59.90
2018-05-04T20:42:47.131Z,60.20
2018-05-04T20:44:51.290Z,60.20
2018-05-04T20:46:55.142Z,60.40
2018-05-04T20:48:59.912Z,60.70
2018-05-04T20:51:04.196Z,61.00
2018-05-04T20:53:08.288Z,61.60
2018-05-04T20:55:11.811Z,61.60
2018-05-04T20:57:15.744Z,62.10
2018-05-04T20:59:19.201Z,62.00
2018-05-04T21:01:22.771Z,62.30
2018-05-04T21:03:26.553Z,63.10
2018-05-04T21:05:30.181Z,62.60
2018-05-04T21:07:34.255Z,63.10
2018-05-04T21:09:37.796Z,63.20
2018-05-04T21:11:41.394Z,63.10
2018-05-04T21:13:45.044Z,62.90
2018-05-04T21:15:48.835Z,62.80
2018-05-04T21:17:52.216Z,63.00
2018-05-04T21:19:58.496Z,63.10
2018-05-04T21:22:01.924Z,63.10
2018-05-04T21:24:05.339Z,63.80
2018-05-04T21:26:08.698Z,63.80
2018-05-04T21:28:12.170Z,63.90
2018-05-04T21:30:15.692Z,64.30
2018-05-04T21:32:19.100Z,64.20
2018-05-04T21:34:22.509Z,65.00
2018-05-04T21:36:26.723Z,65.20
2018-05-04T21:38:30.144Z,65.40
2018-05-04T21:40:33.660Z,66.00
2018-05-04T21:42:37.026Z,66.20
2018-05-04T21:44:40.563Z,66.90
2018-05-04T21:46:44.003Z,67.10
2018-05-04T21:48:47.346Z,67.00
2018-05-04T21:50:50.707Z,67.20
2018-05-04T21:52:54.114Z,67.50
2018-05-04T21:54:57.445Z,68.00
2018-05-04T21:57:00.837Z,68.10
2018-05-04T21:59:04.356Z,68.80
2018-05-04T22:01:07.722Z,69.50
2018-05-04T22:03:11.166Z,69.60
2018-05-04T22:05:15.341Z,70.50
2018-05-04T22:07:18.733Z,70.60
2018-05-04T22:09:22.140Z,70.70
2018-05-04T22:11:25.594Z,71.40
2018-05-04T22:13:29.032Z,71.90
2018-05-04T22:15:32.472Z,72.40
2018-05-04T22:17:35.814Z,72.20
2018-05-04T22:19:40.123Z,72.60
2018-05-04T22:21:43.658Z,73.00
2018-05-04T22:23:48.536Z,73.10
2018-05-04T22:25:51.972Z,73.10
2018-05-04T22:27:56.132Z,73.80
2018-05-04T22:29:59.666Z,73.70
2018-05-04T22:32:03.078Z,74.20
2018-05-04T22:34:07.198Z,74.60
2018-05-04T22:36:11.041Z,74.50
2018-05-04T22:38:14.513Z,74.70
2018-05-04T22:40:17.893Z,75.40
2018-05-04T22:42:22.112Z,75.90
2018-05-04T22:44:25.537Z,75.90
2018-05-04T22:46:28.882Z,76.70
2018-05-04T22:48:32.371Z,77.00
2018-05-04T22:50:36.594Z,77.20
2018-05-04T22:52:40.739Z,77.40
2018-05-04T22:54:44.135Z,77.40
2018-05-04T22:56:47.524Z,78.20
2018-05-04T22:58:50.877Z,79.10
2018-05-04T23:00:54.316Z,79.20
2018-05-04T23:02:57.681Z,79.90
2018-05-04T23:05:02.194Z,80.30
2018-05-04T23:07:05.664Z,80.50
2018-05-04T23:09:09.700Z,80.50
2018-05-04T23:11:13.822Z,80.80
2018-05-04T23:13:17.195Z,80.80
2018-05-04T23:15:20.993Z,81.60
2018-05-04T23:17:25.176Z,81.70
2018-05-04T23:19:28.533Z,81.70
2018-05-04T23:21:31.881Z,82.40
2018-05-04T23:23:36.018Z,82.50
2018-05-04T23:27:49.660Z,83.10
2018-05-04T23:29:53.024Z,82.90
2018-05-04T23:31:56.413Z,83.50
2018-05-04T23:34:00.592Z,85.20
2018-05-04T23:36:03.925Z,85.20
2018-05-04T23:38:07.295Z,85.40
2018-05-04T23:40:10.706Z,85.90
2018-05-04T23:42:14.842Z,86.50
2018-05-04T23:44:18.199Z,86.60
2018-05-04T23:46:21.571Z,86.90
2018-05-04T23:48:25.769Z,87.30
2018-05-04T23:50:29.173Z,87.80
2018-05-04T23:52:32.737Z,87.70
2018-05-04T23:54:36.169Z,87.80
2018-05-04T23:56:39.527Z,87.80
2018-05-04T23:58:42.896Z,88.00
